sensor_id;sensor_type;location;lat;lon;timestamp;P1;durP1;ratioP1;P2;durP2;ratioP2
67904;SDS011;54709;43.614;1.576;2022-07-01T00:01:28;2.50;;;1.00;;
67904;SDS011;54709;43.614;1.576;2022-07-01T00:03:54;0.90;;;0.80;;
67904;SDS011;54709;43.614;1.576;2022-07-01T00:06:20;2.42;;;1.05;;
67904;SDS011;54709;43.614;1.576;2022-07-01T00:08:46;2.08;;;0.80;;
67904;SDS011;54709;43.614;1.576;2022-07-01T00:11:12;1.58;;;0.95;;
67904;SDS011;54709;43.614;1.576;2022-07-01T00:13:38;1.55;;;1.10;;
67904;SDS011;54709;43.614;1.576;2022-07-01T00:16:04;1.35;;;1.10;;
67904;SDS011;54709;43.614;1.576;2022-07-01T00:18:29;3.15;;;0.95;;
67904;SDS011;54709;43.614;1.576;2022-07-01T00:20:55;2.65;;;1.10;;
67904;SDS011;54709;43.614;1.576;2022-07-01T00:23:21;1.85;;;0.90;;
67904;SDS011;54709;43.614;1.576;2022-07-01T00:25:46;1.63;;;1.02;;
67904;SDS011;54709;43.614;1.576;2022-07-01T00:28:11;2.20;;;0.90;;
67904;SDS011;54709;43.614;1.576;2022-07-01T00:30:37;3.78;;;1.00;;
67904;SDS011;54709;43.614;1.576;2022-07-01T00:33:03;2.28;;;1.10;;
67904;SDS011;54709;43.614;1.576;2022-07-01T00:35:28;2.47;;;1.08;;
67904;SDS011;54709;43.614;1.576;2022-07-01T00:37:54;1.67;;;1.00;;
67904;SDS011;54709;43.614;1.576;2022-07-01T00:40:19;1.42;;;0.88;;
67904;SDS011;54709;43.614;1.576;2022-07-01T00:42:44;1.85;;;0.93;;
67904;SDS011;54709;43.614;1.576;2022-07-01T00:45:11;1.35;;;0.80;;
67904;SDS011;54709;43.614;1.576;2022-07-01T00:47:37;1.38;;;1.05;;
67904;SDS011;54709;43.614;1.576;2022-07-01T00:50:07;1.30;;;0.88;;
67904;SDS011;54709;43.614;1.576;2022-07-01T00:52:33;3.50;;;0.80;;
67904;SDS011;54709;43.614;1.576;2022-07-01T00:54:59;2.25;;;1.10;;
67904;SDS011;54709;43.614;1.576;2022-07-01T00:57:29;2.75;;;0.93;;
67904;SDS011;54709;43.614;1.576;2022-07-01T00:59:55;2.25;;;1.10;;
67904;SDS011;54709;43.614;1.576;2022-07-01T01:02:20;1.45;;;1.00;;
67904;SDS011;54709;43.614;1.576;2022-07-01T01:04:46;2.28;;;1.00;;
67904;SDS011;54709;43.614;1.576;2022-07-01T01:07:12;1.92;;;1.02;;
67904;SDS011;54709;43.614;1.576;2022-07-01T01:09:38;1.55;;;1.00;;
67904;SDS011;54709;43.614;1.576;2022-07-01T01:12:04;1.92;;;1.02;;
67904;SDS011;54709;43.614;1.576;2022-07-01T01:14:30;3.08;;;0.90;;
67904;SDS011;54709;43.614;1.576;2022-07-01T01:17:11;2.23;;;1.23;;
67904;SDS011;54709;43.614;1.576;2022-07-01T01:19:37;2.03;;;1.08;;
67904;SDS011;54709;43.614;1.576;2022-07-01T01:22:03;2.22;;;1.20;;
67904;SDS011;54709;43.614;1.576;2022-07-01T01:24:29;1.60;;;1.10;;
67904;SDS011;54709;43.614;1.576;2022-07-01T01:26:54;3.80;;;1.50;;
67904;SDS011;54709;43.614;1.576;2022-07-01T01:29:20;7.03;;;1.35;;
67904;SDS011;54709;43.614;1.576;2022-07-01T01:31:45;5.85;;;1.48;;
67904;SDS011;54709;43.614;1.576;2022-07-01T01:34:11;2.42;;;1.65;;
67904;SDS011;54709;43.614;1.576;2022-07-01T01:36:37;4.43;;;1.90;;
67904;SDS011;54709;43.614;1.576;2022-07-01T01:39:02;2.45;;;1.42;;
67904;SDS011;54709;43.614;1.576;2022-07-01T01:41:39;3.72;;;1.60;;
67904;SDS011;54709;43.614;1.576;2022-07-01T01:44:04;3.80;;;1.50;;
67904;SDS011;54709;43.614;1.576;2022-07-01T01:46:30;3.90;;;1.70;;
67904;SDS011;54709;43.614;1.576;2022-07-01T01:48:56;4.18;;;1.73;;
67904;SDS011;54709;43.614;1.576;2022-07-01T01:51:22;2.35;;;1.42;;
67904;SDS011;54709;43.614;1.576;2022-07-01T01:53:47;5.60;;;1.67;;
67904;SDS011;54709;43.614;1.576;2022-07-01T01:56:13;2.70;;;1.48;;
67904;SDS011;54709;43.614;1.576;2022-07-01T01:58:38;3.55;;;1.60;;
67904;SDS011;54709;43.614;1.576;2022-07-01T02:01:08;3.58;;;1.80;;
67904;SDS011;54709;43.614;1.576;2022-07-01T02:03:34;3.90;;;1.50;;
67904;SDS011;54709;43.614;1.576;2022-07-01T02:06:00;3.30;;;1.42;;
67904;SDS011;54709;43.614;1.576;2022-07-01T02:08:25;4.53;;;1.67;;
67904;SDS011;54709;43.614;1.576;2022-07-01T02:10:50;6.28;;;1.63;;
67904;SDS011;54709;43.614;1.576;2022-07-01T02:13:16;3.80;;;1.63;;
67904;SDS011;54709;43.614;1.576;2022-07-01T02:15:41;4.30;;;1.67;;
67904;SDS011;54709;43.614;1.576;2022-07-01T02:18:07;5.07;;;2.00;;
67904;SDS011;54709;43.614;1.576;2022-07-01T02:20:32;7.28;;;1.90;;
67904;SDS011;54709;43.614;1.576;2022-07-01T02:22:58;5.65;;;1.48;;
67904;SDS011;54709;43.614;1.576;2022-07-01T02:25:24;4.10;;;2.03;;
67904;SDS011;54709;43.614;1.576;2022-07-01T02:27:49;3.88;;;1.90;;
67904;SDS011;54709;43.614;1.576;2022-07-01T02:30:15;4.93;;;1.70;;
67904;SDS011;54709;43.614;1.576;2022-07-01T02:32:40;5.07;;;1.90;;
67904;SDS011;54709;43.614;1.576;2022-07-01T02:35:06;3.25;;;1.70;;
67904;SDS011;54709;43.614;1.576;2022-07-01T02:37:31;4.65;;;1.70;;
67904;SDS011;54709;43.614;1.576;2022-07-01T02:39:58;3.50;;;1.67;;
67904;SDS011;54709;43.614;1.576;2022-07-01T02:42:24;3.05;;;1.67;;
67904;SDS011;54709;43.614;1.576;2022-07-01T02:44:51;4.65;;;1.88;;
67904;SDS011;54709;43.614;1.576;2022-07-01T02:47:18;3.97;;;1.73;;
67904;SDS011;54709;43.614;1.576;2022-07-01T02:49:43;5.68;;;1.77;;
67904;SDS011;54709;43.614;1.576;2022-07-01T02:52:08;3.85;;;1.70;;
67904;SDS011;54709;43.614;1.576;2022-07-01T02:54:34;4.82;;;1.88;;
67904;SDS011;54709;43.614;1.576;2022-07-01T02:56:59;5.75;;;1.98;;
67904;SDS011;54709;43.614;1.576;2022-07-01T02:59:26;4.40;;;1.80;;
67904;SDS011;54709;43.614;1.576;2022-07-01T03:01:51;4.47;;;1.73;;
67904;SDS011;54709;43.614;1.576;2022-07-01T03:04:16;4.88;;;1.75;;
67904;SDS011;54709;43.614;1.576;2022-07-01T03:06:42;6.80;;;1.80;;
67904;SDS011;54709;43.614;1.576;2022-07-01T03:09:07;4.40;;;1.90;;
67904;SDS011;54709;43.614;1.576;2022-07-01T03:11:33;7.10;;;1.85;;
67904;SDS011;54709;43.614;1.576;2022-07-01T03:13:58;5.38;;;1.92;;
67904;SDS011;54709;43.614;1.576;2022-07-01T03:16:23;3.70;;;1.95;;
67904;SDS011;54709;43.614;1.576;2022-07-01T03:18:49;3.92;;;1.77;;
67904;SDS011;54709;43.614;1.576;2022-07-01T03:21:14;4.53;;;1.58;;
67904;SDS011;54709;43.614;1.576;2022-07-01T03:23:40;8.55;;;1.77;;
67904;SDS011;54709;43.614;1.576;2022-07-01T03:26:05;4.70;;;1.60;;
67904;SDS011;54709;43.614;1.576;2022-07-01T03:28:30;5.97;;;1.65;;
67904;SDS011;54709;43.614;1.576;2022-07-01T03:30:56;4.63;;;1.90;;
67904;SDS011;54709;43.614;1.576;2022-07-01T03:33:22;4.03;;;1.58;;
67904;SDS011;54709;43.614;1.576;2022-07-01T03:35:47;3.35;;;1.50;;
67904;SDS011;54709;43.614;1.576;2022-07-01T03:38:13;8.27;;;1.90;;
67904;SDS011;54709;43.614;1.576;2022-07-01T03:40:38;5.38;;;1.65;;
67904;SDS011;54709;43.614;1.576;2022-07-01T03:43:04;4.38;;;1.60;;
67904;SDS011;54709;43.614;1.576;2022-07-01T03:45:30;6.45;;;1.70;;
67904;SDS011;54709;43.614;1.576;2022-07-01T03:47:56;5.53;;;1.85;;
67904;SDS011;54709;43.614;1.576;2022-07-01T03:50:22;6.97;;;1.60;;
67904;SDS011;54709;43.614;1.576;2022-07-01T03:52:48;3.00;;;1.60;;
67904;SDS011;54709;43.614;1.576;2022-07-01T03:55:13;2.38;;;1.50;;
67904;SDS011;54709;43.614;1.576;2022-07-01T03:57:39;4.28;;;1.77;;
67904;SDS011;54709;43.614;1.576;2022-07-01T04:00:05;5.80;;;1.90;;
67904;SDS011;54709;43.614;1.576;2022-07-01T04:02:31;5.28;;;1.90;;
67904;SDS011;54709;43.614;1.576;2022-07-01T04:04:57;3.95;;;1.60;;
67904;SDS011;54709;43.614;1.576;2022-07-01T04:07:22;6.82;;;1.67;;
67904;SDS011;54709;43.614;1.576;2022-07-01T04:09:48;4.32;;;1.95;;
67904;SDS011;54709;43.614;1.576;2022-07-01T04:12:13;6.43;;;1.73;;
67904;SDS011;54709;43.614;1.576;2022-07-01T04:14:39;4.88;;;1.80;;
67904;SDS011;54709;43.614;1.576;2022-07-01T04:17:04;4.57;;;1.73;;
67904;SDS011;54709;43.614;1.576;2022-07-01T04:19:30;5.93;;;1.90;;
67904;SDS011;54709;43.614;1.576;2022-07-01T04:21:56;5.38;;;1.95;;
67904;SDS011;54709;43.614;1.576;2022-07-01T04:24:40;3.25;;;1.67;;
67904;SDS011;54709;43.614;1.576;2022-07-01T04:27:05;4.63;;;1.90;;
67904;SDS011;54709;43.614;1.576;2022-07-01T04:29:31;6.20;;;2.08;;
67904;SDS011;54709;43.614;1.576;2022-07-01T04:31:56;6.88;;;2.42;;
67904;SDS011;54709;43.614;1.576;2022-07-01T04:34:22;5.07;;;2.28;;
67904;SDS011;54709;43.614;1.576;2022-07-01T04:36:48;6.78;;;2.10;;
67904;SDS011;54709;43.614;1.576;2022-07-01T04:39:13;7.50;;;1.90;;
67904;SDS011;54709;43.614;1.576;2022-07-01T04:41:39;6.50;;;2.20;;
67904;SDS011;54709;43.614;1.576;2022-07-01T04:44:22;5.75;;;2.38;;
67904;SDS011;54709;43.614;1.576;2022-07-01T04:46:48;9.05;;;3.03;;
67904;SDS011;54709;43.614;1.576;2022-07-01T04:49:13;15.07;;;3.63;;
67904;SDS011;54709;43.614;1.576;2022-07-01T04:51:39;7.00;;;3.05;;
67904;SDS011;54709;43.614;1.576;2022-07-01T04:54:05;6.07;;;3.17;;
67904;SDS011;54709;43.614;1.576;2022-07-01T04:56:31;11.13;;;3.20;;
67904;SDS011;54709;43.614;1.576;2022-07-01T04:58:56;7.30;;;3.55;;
67904;SDS011;54709;43.614;1.576;2022-07-01T05:01:22;10.02;;;3.20;;
67904;SDS011;54709;43.614;1.576;2022-07-01T05:03:47;9.45;;;3.47;;
67904;SDS011;54709;43.614;1.576;2022-07-01T05:06:13;6.78;;;3.42;;
67904;SDS011;54709;43.614;1.576;2022-07-01T05:08:39;8.43;;;3.45;;
67904;SDS011;54709;43.614;1.576;2022-07-01T05:11:04;7.30;;;3.47;;
67904;SDS011;54709;43.614;1.576;2022-07-01T05:13:29;11.30;;;3.60;;
67904;SDS011;54709;43.614;1.576;2022-07-01T05:15:55;6.20;;;3.20;;
67904;SDS011;54709;43.614;1.576;2022-07-01T05:18:20;8.35;;;3.75;;
67904;SDS011;54709;43.614;1.576;2022-07-01T05:21:05;8.50;;;4.03;;
67904;SDS011;54709;43.614;1.576;2022-07-01T05:23:48;8.35;;;3.85;;
67904;SDS011;54709;43.614;1.576;2022-07-01T05:26:14;7.07;;;3.88;;
67904;SDS011;54709;43.614;1.576;2022-07-01T05:28:42;10.68;;;4.53;;
67904;SDS011;54709;43.614;1.576;2022-07-01T05:31:08;11.02;;;4.72;;
67904;SDS011;54709;43.614;1.576;2022-07-01T05:33:34;11.65;;;4.50;;
67904;SDS011;54709;43.614;1.576;2022-07-01T05:35:59;12.40;;;5.10;;
67904;SDS011;54709;43.614;1.576;2022-07-01T05:38:24;9.98;;;4.70;;
67904;SDS011;54709;43.614;1.576;2022-07-01T05:40:50;10.50;;;4.80;;
67904;SDS011;54709;43.614;1.576;2022-07-01T05:43:17;11.05;;;4.60;;
67904;SDS011;54709;43.614;1.576;2022-07-01T05:45:43;9.57;;;4.57;;
67904;SDS011;54709;43.614;1.576;2022-07-01T05:48:08;8.07;;;4.68;;
67904;SDS011;54709;43.614;1.576;2022-07-01T05:50:33;9.32;;;4.32;;
67904;SDS011;54709;43.614;1.576;2022-07-01T05:52:59;11.13;;;4.00;;
67904;SDS011;54709;43.614;1.576;2022-07-01T05:55:24;9.05;;;3.80;;
67904;SDS011;54709;43.614;1.576;2022-07-01T05:57:50;11.45;;;3.83;;
67904;SDS011;54709;43.614;1.576;2022-07-01T06:00:16;6.88;;;3.70;;
67904;SDS011;54709;43.614;1.576;2022-07-01T06:02:42;9.50;;;3.63;;
67904;SDS011;54709;43.614;1.576;2022-07-01T06:05:08;7.47;;;3.80;;
67904;SDS011;54709;43.614;1.576;2022-07-01T06:07:33;9.93;;;3.75;;
67904;SDS011;54709;43.614;1.576;2022-07-01T06:09:58;8.70;;;3.33;;
67904;SDS011;54709;43.614;1.576;2022-07-01T06:12:24;7.68;;;3.70;;
67904;SDS011;54709;43.614;1.576;2022-07-01T06:14:49;10.13;;;3.70;;
67904;SDS011;54709;43.614;1.576;2022-07-01T06:17:15;7.30;;;3.38;;
67904;SDS011;54709;43.614;1.576;2022-07-01T06:19:41;6.22;;;3.72;;
67904;SDS011;54709;43.614;1.576;2022-07-01T06:22:07;7.60;;;3.78;;
67904;SDS011;54709;43.614;1.576;2022-07-01T06:24:33;7.95;;;3.80;;
67904;SDS011;54709;43.614;1.576;2022-07-01T06:26:59;9.95;;;3.90;;
67904;SDS011;54709;43.614;1.576;2022-07-01T06:29:28;11.55;;;3.80;;
67904;SDS011;54709;43.614;1.576;2022-07-01T06:31:54;11.07;;;3.80;;
67904;SDS011;54709;43.614;1.576;2022-07-01T06:34:20;6.00;;;3.60;;
67904;SDS011;54709;43.614;1.576;2022-07-01T06:36:45;8.63;;;3.75;;
67904;SDS011;54709;43.614;1.576;2022-07-01T06:39:10;7.82;;;3.38;;
67904;SDS011;54709;43.614;1.576;2022-07-01T06:41:36;10.52;;;3.65;;
67904;SDS011;54709;43.614;1.576;2022-07-01T06:44:01;6.70;;;3.53;;
67904;SDS011;54709;43.614;1.576;2022-07-01T06:46:27;8.13;;;3.38;;
67904;SDS011;54709;43.614;1.576;2022-07-01T06:48:53;5.70;;;3.33;;
67904;SDS011;54709;43.614;1.576;2022-07-01T06:51:20;9.77;;;3.60;;
67904;SDS011;54709;43.614;1.576;2022-07-01T06:53:45;7.70;;;3.35;;
67904;SDS011;54709;43.614;1.576;2022-07-01T06:56:12;7.07;;;3.13;;
67904;SDS011;54709;43.614;1.576;2022-07-01T06:58:38;6.45;;;3.00;;
67904;SDS011;54709;43.614;1.576;2022-07-01T07:01:04;6.70;;;2.65;;
67904;SDS011;54709;43.614;1.576;2022-07-01T07:03:30;6.10;;;3.25;;
67904;SDS011;54709;43.614;1.576;2022-07-01T07:05:57;8.13;;;3.00;;
67904;SDS011;54709;43.614;1.576;2022-07-01T07:08:25;9.95;;;3.10;;
67904;SDS011;54709;43.614;1.576;2022-07-01T07:10:51;6.53;;;3.10;;
67904;SDS011;54709;43.614;1.576;2022-07-01T07:13:17;8.15;;;2.60;;
67904;SDS011;54709;43.614;1.576;2022-07-01T07:15:42;6.22;;;2.90;;
67904;SDS011;54709;43.614;1.576;2022-07-01T07:18:08;10.80;;;3.13;;
67904;SDS011;54709;43.614;1.576;2022-07-01T07:20:33;9.63;;;3.20;;
67904;SDS011;54709;43.614;1.576;2022-07-01T07:22:59;5.65;;;2.90;;
67904;SDS011;54709;43.614;1.576;2022-07-01T07:25:25;9.23;;;3.08;;
67904;SDS011;54709;43.614;1.576;2022-07-01T07:27:50;9.88;;;2.67;;
67904;SDS011;54709;43.614;1.576;2022-07-01T07:30:16;6.53;;;2.75;;
67904;SDS011;54709;43.614;1.576;2022-07-01T07:32:41;8.00;;;2.83;;
67904;SDS011;54709;43.614;1.576;2022-07-01T07:35:08;6.50;;;2.33;;
67904;SDS011;54709;43.614;1.576;2022-07-01T07:37:33;8.18;;;2.60;;
67904;SDS011;54709;43.614;1.576;2022-07-01T07:39:59;6.32;;;2.25;;
67904;SDS011;54709;43.614;1.576;2022-07-01T07:42:26;10.07;;;2.80;;
67904;SDS011;54709;43.614;1.576;2022-07-01T07:44:52;7.07;;;2.95;;
67904;SDS011;54709;43.614;1.576;2022-07-01T07:47:18;7.00;;;2.53;;
67904;SDS011;54709;43.614;1.576;2022-07-01T07:49:43;8.27;;;2.58;;
67904;SDS011;54709;43.614;1.576;2022-07-01T07:52:08;5.32;;;2.30;;
67904;SDS011;54709;43.614;1.576;2022-07-01T07:54:34;6.38;;;2.67;;
67904;SDS011;54709;43.614;1.576;2022-07-01T07:56:59;5.93;;;2.63;;
67904;SDS011;54709;43.614;1.576;2022-07-01T07:59:25;6.90;;;2.47;;
67904;SDS011;54709;43.614;1.576;2022-07-01T08:01:50;10.55;;;2.70;;
67904;SDS011;54709;43.614;1.576;2022-07-01T08:04:16;8.05;;;2.47;;
67904;SDS011;54709;43.614;1.576;2022-07-01T08:06:41;6.65;;;2.40;;
67904;SDS011;54709;43.614;1.576;2022-07-01T08:09:07;6.85;;;2.28;;
67904;SDS011;54709;43.614;1.576;2022-07-01T08:11:32;6.55;;;2.88;;
67904;SDS011;54709;43.614;1.576;2022-07-01T08:13:58;6.45;;;2.40;;
67904;SDS011;54709;43.614;1.576;2022-07-01T08:16:23;6.47;;;2.20;;
67904;SDS011;54709;43.614;1.576;2022-07-01T08:18:49;9.52;;;2.28;;
67904;SDS011;54709;43.614;1.576;2022-07-01T08:21:14;7.32;;;2.10;;
67904;SDS011;54709;43.614;1.576;2022-07-01T08:23:40;5.38;;;2.42;;
67904;SDS011;54709;43.614;1.576;2022-07-01T08:26:05;5.13;;;2.30;;
67904;SDS011;54709;43.614;1.576;2022-07-01T08:28:31;6.30;;;2.28;;
67904;SDS011;54709;43.614;1.576;2022-07-01T08:30:56;9.07;;;2.97;;
67904;SDS011;54709;43.614;1.576;2022-07-01T08:33:22;7.85;;;2.42;;
67904;SDS011;54709;43.614;1.576;2022-07-01T08:35:47;6.78;;;2.30;;
67904;SDS011;54709;43.614;1.576;2022-07-01T08:38:13;7.32;;;2.65;;
67904;SDS011;54709;43.614;1.576;2022-07-01T08:40:38;7.57;;;2.38;;
67904;SDS011;54709;43.614;1.576;2022-07-01T08:43:04;6.78;;;2.63;;
67904;SDS011;54709;43.614;1.576;2022-07-01T08:45:31;4.18;;;2.03;;
67904;SDS011;54709;43.614;1.576;2022-07-01T08:47:58;7.70;;;2.22;;
67904;SDS011;54709;43.614;1.576;2022-07-01T08:50:28;4.80;;;2.20;;
67904;SDS011;54709;43.614;1.576;2022-07-01T08:52:54;4.80;;;2.20;;
67904;SDS011;54709;43.614;1.576;2022-07-01T08:55:20;6.38;;;1.90;;
67904;SDS011;54709;43.614;1.576;2022-07-01T08:57:46;5.78;;;2.15;;
67904;SDS011;54709;43.614;1.576;2022-07-01T09:00:12;9.23;;;2.30;;
67904;SDS011;54709;43.614;1.576;2022-07-01T09:02:53;7.10;;;1.90;;
67904;SDS011;54709;43.614;1.576;2022-07-01T09:05:21;5.13;;;1.75;;
67904;SDS011;54709;43.614;1.576;2022-07-01T09:07:47;7.22;;;2.28;;
67904;SDS011;54709;43.614;1.576;2022-07-01T09:10:14;6.13;;;1.95;;
67904;SDS011;54709;43.614;1.576;2022-07-01T09:12:46;6.30;;;2.00;;
67904;SDS011;54709;43.614;1.576;2022-07-01T09:15:25;4.75;;;1.60;;
67904;SDS011;54709;43.614;1.576;2022-07-01T09:17:53;3.90;;;1.30;;
67904;SDS011;54709;43.614;1.576;2022-07-01T09:20:28;6.75;;;1.70;;
67904;SDS011;54709;43.614;1.576;2022-07-01T09:22:58;5.35;;;1.38;;
67904;SDS011;54709;43.614;1.576;2022-07-01T09:25:32;5.57;;;1.30;;
67904;SDS011;54709;43.614;1.576;2022-07-01T09:30:30;3.92;;;1.27;;
67904;SDS011;54709;43.614;1.576;2022-07-01T09:35:35;2.58;;;1.20;;
67904;SDS011;54709;43.614;1.576;2022-07-01T09:38:01;2.50;;;1.20;;
67904;SDS011;54709;43.614;1.576;2022-07-01T09:43:33;3.60;;;1.30;;
67904;SDS011;54709;43.614;1.576;2022-07-01T09:46:00;2.55;;;1.00;;
67904;SDS011;54709;43.614;1.576;2022-07-01T09:51:02;2.63;;;0.90;;
67904;SDS011;54709;43.614;1.576;2022-07-01T09:55:55;3.75;;;0.88;;
67904;SDS011;54709;43.614;1.576;2022-07-01T09:58:20;3.47;;;0.90;;
67904;SDS011;54709;43.614;1.576;2022-07-01T10:00:46;3.13;;;1.10;;
67904;SDS011;54709;43.614;1.576;2022-07-01T10:03:12;1.27;;;0.90;;
67904;SDS011;54709;43.614;1.576;2022-07-01T10:06:26;3.33;;;1.10;;
67904;SDS011;54709;43.614;1.576;2022-07-01T10:14:07;2.88;;;1.20;;
67904;SDS011;54709;43.614;1.576;2022-07-01T10:16:34;5.82;;;1.35;;
67904;SDS011;54709;43.614;1.576;2022-07-01T10:21:45;3.42;;;1.15;;
67904;SDS011;54709;43.614;1.576;2022-07-01T10:24:15;2.65;;;1.00;;
67904;SDS011;54709;43.614;1.576;2022-07-01T10:26:41;6.60;;;1.30;;
67904;SDS011;54709;43.614;1.576;2022-07-01T10:29:26;2.58;;;1.02;;
67904;SDS011;54709;43.614;1.576;2022-07-01T10:32:41;4.72;;;1.30;;
67904;SDS011;54709;43.614;1.576;2022-07-01T10:34:46;5.57;;;1.17;;
67904;SDS011;54709;43.614;1.576;2022-07-01T10:37:12;2.65;;;1.08;;
67904;SDS011;54709;43.614;1.576;2022-07-01T10:42:28;5.22;;;1.00;;
67904;SDS011;54709;43.614;1.576;2022-07-01T10:45:05;1.98;;;0.90;;
67904;SDS011;54709;43.614;1.576;2022-07-01T10:47:35;4.28;;;0.95;;
67904;SDS011;54709;43.614;1.576;2022-07-01T10:50:05;2.38;;;0.90;;
67904;SDS011;54709;43.614;1.576;2022-07-01T10:52:32;3.03;;;1.15;;
67904;SDS011;54709;43.614;1.576;2022-07-01T10:54:58;3.00;;;0.90;;
67904;SDS011;54709;43.614;1.576;2022-07-01T11:02:24;2.30;;;0.90;;
67904;SDS011;54709;43.614;1.576;2022-07-01T11:07:32;1.83;;;0.90;;
67904;SDS011;54709;43.614;1.576;2022-07-01T11:09:59;2.83;;;0.80;;
67904;SDS011;54709;43.614;1.576;2022-07-01T11:12:26;2.22;;;0.95;;
67904;SDS011;54709;43.614;1.576;2022-07-01T11:14:54;3.63;;;1.00;;
67904;SDS011;54709;43.614;1.576;2022-07-01T11:17:20;3.60;;;1.00;;
67904;SDS011;54709;43.614;1.576;2022-07-01T11:19:50;2.35;;;0.98;;
67904;SDS011;54709;43.614;1.576;2022-07-01T11:22:21;4.55;;;1.17;;
67904;SDS011;54709;43.614;1.576;2022-07-01T11:24:58;2.47;;;0.85;;
67904;SDS011;54709;43.614;1.576;2022-07-01T11:27:24;1.58;;;0.65;;
67904;SDS011;54709;43.614;1.576;2022-07-01T11:29:54;2.72;;;0.95;;
67904;SDS011;54709;43.614;1.576;2022-07-01T11:34:53;1.88;;;0.70;;
67904;SDS011;54709;43.614;1.576;2022-07-01T11:37:19;2.50;;;0.98;;
67904;SDS011;54709;43.614;1.576;2022-07-01T11:40:10;5.43;;;1.05;;
67904;SDS011;54709;43.614;1.576;2022-07-01T11:42:38;3.03;;;0.90;;
67904;SDS011;54709;43.614;1.576;2022-07-01T11:45:03;3.42;;;0.80;;
67904;SDS011;54709;43.614;1.576;2022-07-01T11:47:30;3.55;;;0.98;;
67904;SDS011;54709;43.614;1.576;2022-07-01T11:49:55;4.25;;;1.00;;
67904;SDS011;54709;43.614;1.576;2022-07-01T11:52:22;3.70;;;0.90;;
67904;SDS011;54709;43.614;1.576;2022-07-01T11:54:48;1.33;;;0.68;;
67904;SDS011;54709;43.614;1.576;2022-07-01T11:57:19;4.43;;;1.02;;
67904;SDS011;54709;43.614;1.576;2022-07-01T11:59:49;2.28;;;1.00;;
67904;SDS011;54709;43.614;1.576;2022-07-01T12:02:17;1.42;;;0.70;;
67904;SDS011;54709;43.614;1.576;2022-07-01T12:04:44;2.42;;;1.00;;
67904;SDS011;54709;43.614;1.576;2022-07-01T12:07:10;4.95;;;1.00;;
67904;SDS011;54709;43.614;1.576;2022-07-01T12:09:36;5.35;;;0.93;;
67904;SDS011;54709;43.614;1.576;2022-07-01T12:12:02;2.70;;;0.90;;
67904;SDS011;54709;43.614;1.576;2022-07-01T12:14:32;2.92;;;1.08;;
67904;SDS011;54709;43.614;1.576;2022-07-01T12:17:00;2.10;;;0.80;;
67904;SDS011;54709;43.614;1.576;2022-07-01T12:19:39;4.68;;;0.98;;
67904;SDS011;54709;43.614;1.576;2022-07-01T12:22:13;6.65;;;1.05;;
67904;SDS011;54709;43.614;1.576;2022-07-01T12:24:40;2.03;;;0.70;;
67904;SDS011;54709;43.614;1.576;2022-07-01T12:27:06;2.53;;;1.10;;
67904;SDS011;54709;43.614;1.576;2022-07-01T12:32:25;2.67;;;0.80;;
67904;SDS011;54709;43.614;1.576;2022-07-01T12:39:53;4.05;;;0.70;;
67904;SDS011;54709;43.614;1.576;2022-07-01T12:44:52;5.00;;;0.90;;
67904;SDS011;54709;43.614;1.576;2022-07-01T12:47:29;1.10;;;0.75;;
67904;SDS011;54709;43.614;1.576;2022-07-01T12:53:08;3.22;;;0.90;;
67904;SDS011;54709;43.614;1.576;2022-07-01T12:55:44;3.72;;;1.13;;
67904;SDS011;54709;43.614;1.576;2022-07-01T12:58:13;3.63;;;0.90;;
67904;SDS011;54709;43.614;1.576;2022-07-01T13:00:41;3.15;;;0.93;;
67904;SDS011;54709;43.614;1.576;2022-07-01T13:03:08;1.17;;;0.50;;
67904;SDS011;54709;43.614;1.576;2022-07-01T13:05:34;1.70;;;0.70;;
67904;SDS011;54709;43.614;1.576;2022-07-01T13:08:00;2.08;;;0.68;;
67904;SDS011;54709;43.614;1.576;2022-07-01T13:10:26;3.03;;;1.00;;
67904;SDS011;54709;43.614;1.576;2022-07-01T13:12:52;2.72;;;0.88;;
67904;SDS011;54709;43.614;1.576;2022-07-01T13:15:17;1.55;;;0.70;;
67904;SDS011;54709;43.614;1.576;2022-07-01T13:17:43;2.72;;;0.70;;
67904;SDS011;54709;43.614;1.576;2022-07-01T13:20:12;3.22;;;0.60;;
67904;SDS011;54709;43.614;1.576;2022-07-01T13:22:38;2.40;;;0.90;;
67904;SDS011;54709;43.614;1.576;2022-07-01T13:25:04;1.58;;;0.80;;
67904;SDS011;54709;43.614;1.576;2022-07-01T13:27:30;2.35;;;0.63;;
67904;SDS011;54709;43.614;1.576;2022-07-01T13:29:56;2.40;;;0.80;;
67904;SDS011;54709;43.614;1.576;2022-07-01T13:32:22;4.88;;;0.90;;
67904;SDS011;54709;43.614;1.576;2022-07-01T13:34:48;3.72;;;0.73;;
67904;SDS011;54709;43.614;1.576;2022-07-01T13:37:13;5.38;;;0.73;;
67904;SDS011;54709;43.614;1.576;2022-07-01T13:39:39;4.45;;;0.80;;
67904;SDS011;54709;43.614;1.576;2022-07-01T13:42:04;3.25;;;0.70;;
67904;SDS011;54709;43.614;1.576;2022-07-01T13:44:30;3.50;;;0.80;;
67904;SDS011;54709;43.614;1.576;2022-07-01T13:46:55;1.70;;;0.63;;
67904;SDS011;54709;43.614;1.576;2022-07-01T13:49:21;1.17;;;0.70;;
67904;SDS011;54709;43.614;1.576;2022-07-01T13:51:46;2.35;;;0.70;;
67904;SDS011;54709;43.614;1.576;2022-07-01T13:54:12;2.25;;;0.60;;
67904;SDS011;54709;43.614;1.576;2022-07-01T13:56:37;4.85;;;0.70;;
67904;SDS011;54709;43.614;1.576;2022-07-01T13:59:03;2.03;;;0.70;;
67904;SDS011;54709;43.614;1.576;2022-07-01T14:01:28;1.83;;;0.60;;
67904;SDS011;54709;43.614;1.576;2022-07-01T14:03:56;1.65;;;0.77;;
67904;SDS011;54709;43.614;1.576;2022-07-01T14:06:21;3.00;;;0.75;;
67904;SDS011;54709;43.614;1.576;2022-07-01T14:08:47;3.65;;;0.70;;
67904;SDS011;54709;43.614;1.576;2022-07-01T14:11:12;4.10;;;0.68;;
67904;SDS011;54709;43.614;1.576;2022-07-01T14:13:38;1.90;;;0.70;;
67904;SDS011;54709;43.614;1.576;2022-07-01T14:16:05;2.42;;;0.77;;
67904;SDS011;54709;43.614;1.576;2022-07-01T14:18:31;2.30;;;0.70;;
67904;SDS011;54709;43.614;1.576;2022-07-01T14:21:00;2.83;;;0.75;;
67904;SDS011;54709;43.614;1.576;2022-07-01T14:23:26;3.15;;;0.60;;
67904;SDS011;54709;43.614;1.576;2022-07-01T14:25:51;1.20;;;0.65;;
67904;SDS011;54709;43.614;1.576;2022-07-01T14:28:17;2.67;;;0.65;;
67904;SDS011;54709;43.614;1.576;2022-07-01T14:30:43;2.33;;;0.63;;
67904;SDS011;54709;43.614;1.576;2022-07-01T14:33:09;1.73;;;0.60;;
67904;SDS011;54709;43.614;1.576;2022-07-01T14:35:34;2.25;;;0.60;;
67904;SDS011;54709;43.614;1.576;2022-07-01T14:38:00;0.93;;;0.50;;
67904;SDS011;54709;43.614;1.576;2022-07-01T14:40:26;1.38;;;0.50;;
67904;SDS011;54709;43.614;1.576;2022-07-01T14:42:52;0.90;;;0.45;;
67904;SDS011;54709;43.614;1.576;2022-07-01T14:45:17;1.38;;;0.73;;
67904;SDS011;54709;43.614;1.576;2022-07-01T14:47:43;2.60;;;0.57;;
67904;SDS011;54709;43.614;1.576;2022-07-01T14:50:09;2.33;;;0.75;;
67904;SDS011;54709;43.614;1.576;2022-07-01T14:52:35;1.80;;;0.55;;
67904;SDS011;54709;43.614;1.576;2022-07-01T14:55:01;1.33;;;0.70;;
67904;SDS011;54709;43.614;1.576;2022-07-01T14:57:27;3.70;;;0.50;;
67904;SDS011;54709;43.614;1.576;2022-07-01T14:59:52;2.55;;;0.80;;
67904;SDS011;54709;43.614;1.576;2022-07-01T15:02:18;2.85;;;0.65;;
67904;SDS011;54709;43.614;1.576;2022-07-01T15:04:43;2.47;;;0.70;;
67904;SDS011;54709;43.614;1.576;2022-07-01T15:07:10;1.23;;;0.50;;
67904;SDS011;54709;43.614;1.576;2022-07-01T15:09:36;2.35;;;0.70;;
67904;SDS011;54709;43.614;1.576;2022-07-01T15:12:02;1.63;;;0.70;;
67904;SDS011;54709;43.614;1.576;2022-07-01T15:14:27;2.15;;;0.50;;
67904;SDS011;54709;43.614;1.576;2022-07-01T15:16:54;3.40;;;0.77;;
67904;SDS011;54709;43.614;1.576;2022-07-01T15:19:20;1.30;;;0.50;;
67904;SDS011;54709;43.614;1.576;2022-07-01T15:21:45;3.17;;;0.57;;
67904;SDS011;54709;43.614;1.576;2022-07-01T15:24:10;2.67;;;0.70;;
67904;SDS011;54709;43.614;1.576;2022-07-01T15:26:36;1.98;;;0.60;;
67904;SDS011;54709;43.614;1.576;2022-07-01T15:29:01;3.47;;;0.65;;
67904;SDS011;54709;43.614;1.576;2022-07-01T15:31:26;2.28;;;0.75;;
67904;SDS011;54709;43.614;1.576;2022-07-01T15:33:53;2.00;;;0.60;;